Main page
METAR-TAF:

METAR-TAF

Airports :

Inverness Airport

Inverness, Scotland

latitude: 57-32N, longitude: 004-03W, elevation: 9 m

Current weather observation

The report was made 39 minutes ago, at 22:20 UTC
Wind 4 kt from the East/Northeast
Temperature 4°C
Humidity 93%
Pressure 1030 hPa
Visibility 10 km or more

METAR: EGPE 192220Z AUTO 07004KT 9999 FEW027/// BKN034/// BKN041/// 04/03 Q1030

Time: 22:59 (22:59 UTC)

Forecast

The report was made 2 hours and 57 minutes ago, at 20:02 UTC
Forecast valid from 19 at 21 UTC to 20 at 06 UTC
Wind 7 kt from the East
Visibility 10 km or more
Scattered clouds at a height of 3500 ft
Probability 30% :
Temporary
from 19 at 21 UTC to 20 at 06 UTC
Visibility: 6000 m

TAF: EGPE 192002Z 1921/2006 09007KT 9999 SCT035 PROB30 TEMPO 1921/2006 6000

Weather observations and forecasts of more than 4000 airports (METAR and TAF reports).

The available stations are represented by yellow and red dots on the map.

Hover mouse over dot to see the name of the station.

Then click to see weather observations and forecasts.

To change the map : click on the green buttons with a black cross to zoom in, on the green button with a dash to zoom out, or on the green arrows for adjacent maps.


METAR-TAF: